This is the latest recevied weather packets stored in our database for station/object G4MDP-13. If no packets are shown the sender has not sent any weather packets the latest 1 day(s).
| Time | Temp. | Humidity | Pressure | Rain* | Wind** | Luminosity | Snow |
|---|---|---|---|---|---|---|---|
| 1778009658 | 14.44° C | 73% | 1004.9 hPa | 0 mm | 1.79 m/s, 157° | - | - |
| 1778008758 | 14.44° C | 73% | 1005.2 hPa | 0 mm | 1.79 m/s, 158° | - | - |
| 1778008757 | 14.44° C | 73% | 1005.2 hPa | 0 mm | 1.79 m/s, 158° | - | - |
| 1778007917 | 15° C | 72% | 1005 hPa | 0 mm | 1.79 m/s, 160° | - | - |
| 1778007861 | 15° C | 72% | 1004.9 hPa | 0 mm | 1.79 m/s, 159° | - | - |
| 1778007858 | 15° C | 72% | 1004.9 hPa | 0 mm | 1.79 m/s, 159° | - | - |
| 1778006958 | 15.56° C | 67% | 1004.9 hPa | 0 mm | 1.79 m/s, 160° | - | - |
| 1778006957 | 15.56° C | 67% | 1004.9 hPa | 0 mm | 1.79 m/s, 160° | - | - |
| 1778006117 | 15.56° C | 49% | 1004.8 hPa | 0 mm | 1.34 m/s, 152° | - | - |
| 1778006060 | 15.56° C | 49% | 1004.6 hPa | 0 mm | 1.34 m/s, 153° | - | - |
| 1778006058 | 15.56° C | 49% | 1004.6 hPa | 0 mm | 1.34 m/s, 153° | - | - |
| 1778005158 | 15.56° C | 48% | 1004.6 hPa | 0 mm | 1.34 m/s, 156° | - | - |
| 1778005157 | 15.56° C | 48% | 1004.6 hPa | 0 mm | 1.34 m/s, 156° | - | - |
| 1778004317 | 15.56° C | 55% | 1004.7 hPa | 0 mm | 1.79 m/s, 156° | - | - |
| 1778004261 | 15.56° C | 55% | 1004.8 hPa | 0 mm | 1.79 m/s, 155° | - | - |
| 1778004258 | 15.56° C | 55% | 1004.8 hPa | 0 mm | 1.79 m/s, 155° | - | - |
| 1778003358 | 15.56° C | 61% | 1004.8 hPa | 0 mm | 1.79 m/s, 157° | - | - |
| 1778003357 | 15.56° C | 61% | 1004.8 hPa | 0 mm | 1.79 m/s, 157° | - | - |
| 1778002517 | 16.11° C | 62% | 1004.8 hPa | 0 mm | 1.79 m/s, 159° | - | - |
| 1778002460 | 16.11° C | 62% | 1004.9 hPa | 0 mm | 1.79 m/s, 158° | - | - |
| 1778002458 | 16.11° C | 62% | 1004.9 hPa | 0 mm | 1.79 m/s, 158° | - | - |
| 1778001558 | 15.56° C | 58% | 1005 hPa | 0 mm | 1.79 m/s, 158° | - | - |
| 1778001557 | 15.56° C | 58% | 1005 hPa | 0 mm | 1.79 m/s, 158° | - | - |
| 1778000717 | 15.56° C | 59% | 1005 hPa | 0 mm | 1.79 m/s, 161° | - | - |
| 1778000660 | 15.56° C | 59% | 1005 hPa | 0 mm | 1.79 m/s, 161° | - | - |
* Rain latest hour (hover to see other rain measurements)
** Current wind speed in m/s (hover to see current wind gust speed)